Tuesday, June 19, 2018, 3:58 PM EDT
Back to Local

KFYJ, West Point, Middle Peninsula Regional Airport

Location: Shacklefords, VA, United States Lat: 37.521
Local Time: 3:58 PM EDT (19:58 GMT) Lon: -76.764
Time Zone: US/Eastern Elev: 22 ft

Show me the last for .
Show Coded

Time T Td Feel RH Dir Speed Gust Alt SLP Vis Weather Sky Remarks
2018-06-19 15:35 95 74 106 50 270° 7 - 29.81 - 10 SCT065 None
2018-06-19 15:15 94 74 105 52 270° 7 - 29.81 - 10 SCT065 None
2018-06-19 14:55 94 74 106 51 300° 5 - 29.82 - 10 SCT065 None
2018-06-19 14:35 93 74 103 54 260° 5 - 29.82 - 10 SCT060 None
2018-06-19 14:15 94 73 105 50 290° 6 - 29.82 - 10 SCT060 None
2018-06-19 13:55 95 73 106 49 270° 8 - 29.83 - 10 CLR 6-hr Min Temp (2pm): 80.4°F
6-hr Max Temp (2pm): 95.2°F
2018-06-19 13:35 95 74 106 50 310° 7 - 29.84 - 10 CLR None
2018-06-19 13:15 94 74 105 52 270° 7 - 29.84 - 10 CLR None
2018-06-19 12:55 94 74 106 53 260° 6 - 29.85 - 10 CLR None
2018-06-19 12:35 93 74 104 54 270° 5 - 29.85 - 10 CLR None
2018-06-19 12:15 92 74 103 54 250° 5 - 29.85 - 10 CLR None
2018-06-19 11:55 93 75 104 56 270° 8 - 29.86 - 10 CLR None
2018-06-19 11:35 92 75 104 58 260° 7 - 29.86 - 10 CLR None
2018-06-19 11:15 91 75 102 59 290° 6 - 29.87 - 10 CLR None
2018-06-19 10:55 90 75 101 61 290° 7 - 29.87 - 10 CLR None
2018-06-19 10:35 89 75 100 62 270° 9 - 29.87 - 10 CLR None
2018-06-19 10:15 89 76 101 66 260° 7 - 29.88 - 10 CLR None
2018-06-19 09:55 87 76 97 69 270° 6 - 29.88 - 10 CLR None
2018-06-19 09:35 86 75 95 71 260° 7 - 29.88 - 10 CLR None
2018-06-19 09:15 85 75 94 72 260° 5 - 29.88 - 10 CLR None
2018-06-19 08:55 84 75 92 74 270° 3 - 29.89 - 10 CLR None
2018-06-19 08:35 83 75 91 76 - Calm - 29.89 - 10 CLR None
2018-06-19 08:15 82 75 90 80 270° 3 - 29.89 - 10 CLR None
2018-06-19 07:55 80 75 87 85 - Calm - 29.89 - 10 CLR 6-hr Min Temp (8am): 73.8°F
6-hr Max Temp (8am): 80.1°F
2018-06-19 07:35 79 75 85 89 250° 3 - 29.90 - 10 CLR None
2018-06-19 07:15 77 75 83 94 240° 6 - 29.90 - 7 CLR None
2018-06-19 06:55 75 74 80 96 260° 3 - 29.90 - 10 CLR None
2018-06-19 06:35 74 74 79 97 260° 3 - 29.90 - 7 CLR None
2018-06-19 06:15 75 74 79 97 - Calm - 29.90 - 7 CLR None
2018-06-19 05:55 74 74 79 97 - Calm - 29.89 - 7 CLR None
2018-06-19 05:35 74 73 79 97 - Calm - 29.88 - 10 CLR None
2018-06-19 05:15 75 74 79 95 - Calm - 29.88 - 10 CLR None
2018-06-19 04:55 76 74 80 93 - Calm - 29.88 - 10 CLR None
2018-06-19 04:35 77 74 82 90 240° 3 - 29.88 - 10 CLR None
2018-06-19 04:15 75 73 80 93 - Calm - 29.88 - 10 CLR None
2018-06-19 03:55 77 74 82 89 230° 3 - 29.88 - 10 CLR None
2018-06-19 03:35 76 73 81 91 220° 5 - 29.88 - 10 CLR None
2018-06-19 03:15 76 73 80 91 - Calm - 29.88 - 10 CLR None
2018-06-19 02:55 77 73 81 89 - Calm - 29.89 - 10 CLR None
2018-06-19 02:35 78 74 83 88 - Calm - 29.90 - 10 CLR None
2018-06-19 02:15 78 74 83 88 - Calm - 29.90 - 10 CLR None
2018-06-19 01:55 78 74 83 89 - Calm - 29.90 - 10 CLR 6-hr Min Temp (2am): 77.7°F
6-hr Max Temp (2am): 82.0°F
24-hr Min Temp (2am): 71.1°F
24-hr Max Temp (2am): 90.5°F
2018-06-19 01:35 78 75 84 91 - Calm - 29.91 - 10 CLR None
2018-06-19 01:15 78 75 84 90 - Calm - 29.91 - 10 CLR None
2018-06-19 00:55 78 76 84 92 170° 3 - 29.92 - 10 CLR None
2018-06-19 00:35 78 76 84 92 - Calm - 29.93 - 10 CLR None
2018-06-19 00:15 79 76 85 91 170° 3 - 29.93 - 10 CLR None
2018-06-18 23:55 78 76 85 92 170° 3 - 29.94 - 10 CLR None
2018-06-18 23:35 79 76 85 90 170° 3 - 29.94 - 10 CLR None
2018-06-18 23:15 79 75 85 89 - Calm - 29.94 - 10 CLR None
2018-06-18 22:55 80 76 87 88 - Calm - 29.94 - 10 CLR None
2018-06-18 22:35 80 76 87 88 170° 5 - 29.94 - 10 CLR None
2018-06-18 22:15 80 76 87 88 160° 3 - 29.94 - 10 CLR None
2018-06-18 21:55 80 76 87 89 - Calm - 29.94 - 10 CLR None
2018-06-18 21:35 80 77 88 89 - Calm - 29.93 - 10 CLR None
2018-06-18 21:15 80 77 88 88 150° 3 - 29.92 - 10 CLR None
2018-06-18 20:55 80 76 88 86 150° 5 - 29.92 - 10 CLR None
2018-06-18 20:35 81 75 87 83 150° 5 - 29.93 - 10 CLR None
2018-06-18 20:15 82 75 89 80 150° 6 - 29.93 - 10 CLR None
2018-06-18 19:55 82 75 89 78 140° 6 - 29.93 - 10 CLR 6-hr Min Temp (8pm): 82.2°F
6-hr Max Temp (8pm): 90.5°F
2018-06-18 19:35 84 75 92 75 150° 6 - 29.94 - 10 CLR None
2018-06-18 19:15 86 76 96 72 160° 5 - 29.94 - 10 CLR None
2018-06-18 18:55 87 76 98 71 150° 5 - 29.95 - 10 CLR None
2018-06-18 18:35 88 77 99 70 160° 6 - 29.96 - 10 CLR None
2018-06-18 18:15 88 76 99 68 150° 5 - 29.96 - 10 CLR None
2018-06-18 17:55 89 76 100 67 150° 5 - 29.96 - 10 CLR None
2018-06-18 17:35 90 74 100 61 180° 6 - 29.97 - 10 CLR None
2018-06-18 17:15 90 73 99 58 - Calm - 29.97 - 10 CLR None
2018-06-18 16:55 90 74 100 59 170° 5 - 29.98 - 10 CLR None
2018-06-18 16:35 90 72 98 56 220° 5 - 29.99 - 10 CLR None
2018-06-18 16:15 90 72 98 55 240° 3 - 29.99 - 10 CLR None

Support USWX by starting your Amazon purchase here.